Haileybury, Canada
Current Conditions -  °F | °C
As of 12:21 PM on Thursday 18 Dec 2014 (Local Time) from CYXR Reporting Station
Scattered Clouds Scattered Clouds  
Wind Chill: -7°   Ceiling: Unl
Heat Index:   Visibility: 9mi
Dew Point:   Wind: 13mph
Humidity: 85%   Direction: 300°WNW
Pressure: 30.16"   Gusts: NA
Location:  47.45°N, 79.64°W
Report Text: CYXR 181721Z AUTO 30011KT 9SM SCT009 M13/M15 A3016 RMK SLP234
Loading
Personal Weather Stations






























Interactive Weather Map New forecast layout! Learn more

10-Day Weather Forecast

Advertisements
Track Severe Weather on mobile